Terminal Aerodrome Forecast
Issued by NWS

Home | Current Version | Previous Version | Text Only | Print | Product List | Glossary On
Versions: 1 2 3 4 5 6 7 8 9 10 11 12 13
000
FTUS46 KSTO 202300
TAFRDD
TAF
KRDD 202338Z 2100/2124 17013KT P6SM SCT200
     FM210400 VRB04KT P6SM BKN150
     FM212200 16010KT P6SM SCT200=

USA.gov is the U.S. government's official web portal to all federal, state and local government web resources and services.